Terminal Aerodrome Forecast
Issued by NWS

Home | Current Version | Previous Version | Text Only | Print | Product List | Glossary On
Versions: 1 2 3 4 5 6 7 8 9 10 11 12 13
522
FTUS44 KCRP 261130
TAFALI
TAF
KALI 261130Z 2612/2712 16012KT P6SM OVC015
     FM261500 17015G22KT P6SM BKN025
     FM261800 15015G22KT P6SM SCT035
     FM270300 16012KT P6SM BKN025
     FM270600 16012KT P6SM OVC015=

USA.gov is the U.S. government's official web portal to all federal, state and local government web resources and services.